sensor_id;sensor_type;location;lat;lon;timestamp;P1;durP1;ratioP1;P2;durP2;ratioP2
42988;SDS011;28622;43.716;20.668;2022-07-10T00:00:31;6.45;;;1.10;;
42988;SDS011;28622;43.716;20.668;2022-07-10T00:02:57;1.77;;;0.60;;
42988;SDS011;28622;43.716;20.668;2022-07-10T00:05:24;0.80;;;0.50;;
42988;SDS011;28622;43.716;20.668;2022-07-10T00:07:50;0.57;;;0.55;;
42988;SDS011;28622;43.716;20.668;2022-07-10T00:10:17;0.98;;;0.52;;
42988;SDS011;28622;43.716;20.668;2022-07-10T00:12:44;1.98;;;1.05;;
42988;SDS011;28622;43.716;20.668;2022-07-10T00:15:11;1.83;;;0.85;;
42988;SDS011;28622;43.716;20.668;2022-07-10T00:17:57;1.00;;;0.70;;
42988;SDS011;28622;43.716;20.668;2022-07-10T00:20:23;1.45;;;0.60;;
42988;SDS011;28622;43.716;20.668;2022-07-10T00:22:48;1.65;;;0.80;;
42988;SDS011;28622;43.716;20.668;2022-07-10T00:25:14;3.08;;;1.05;;
42988;SDS011;28622;43.716;20.668;2022-07-10T00:27:40;1.05;;;0.80;;
42988;SDS011;28622;43.716;20.668;2022-07-10T00:30:07;3.50;;;1.10;;
42988;SDS011;28622;43.716;20.668;2022-07-10T00:32:34;0.88;;;0.63;;
42988;SDS011;28622;43.716;20.668;2022-07-10T00:35:00;1.52;;;0.65;;
42988;SDS011;28622;43.716;20.668;2022-07-10T00:37:27;1.80;;;0.80;;
42988;SDS011;28622;43.716;20.668;2022-07-10T00:39:53;0.70;;;0.70;;
42988;SDS011;28622;43.716;20.668;2022-07-10T00:42:19;2.63;;;1.15;;
42988;SDS011;28622;43.716;20.668;2022-07-10T00:44:44;1.05;;;0.95;;
42988;SDS011;28622;43.716;20.668;2022-07-10T00:47:10;5.28;;;0.90;;
42988;SDS011;28622;43.716;20.668;2022-07-10T00:49:37;1.10;;;0.80;;
42988;SDS011;28622;43.716;20.668;2022-07-10T00:52:07;0.90;;;0.73;;
42988;SDS011;28622;43.716;20.668;2022-07-10T00:54:35;1.25;;;0.80;;
42988;SDS011;28622;43.716;20.668;2022-07-10T00:57:03;0.98;;;0.70;;
42988;SDS011;28622;43.716;20.668;2022-07-10T00:59:33;0.90;;;0.77;;
42988;SDS011;28622;43.716;20.668;2022-07-10T01:02:00;1.70;;;1.15;;
42988;SDS011;28622;43.716;20.668;2022-07-10T01:04:27;0.82;;;0.60;;
42988;SDS011;28622;43.716;20.668;2022-07-10T01:06:53;0.98;;;0.80;;
42988;SDS011;28622;43.716;20.668;2022-07-10T01:09:19;1.25;;;0.77;;
42988;SDS011;28622;43.716;20.668;2022-07-10T01:11:44;2.90;;;0.95;;
42988;SDS011;28622;43.716;20.668;2022-07-10T01:14:11;3.15;;;1.00;;
42988;SDS011;28622;43.716;20.668;2022-07-10T01:16:38;1.90;;;1.00;;
42988;SDS011;28622;43.716;20.668;2022-07-10T01:19:04;1.13;;;0.80;;
42988;SDS011;28622;43.716;20.668;2022-07-10T01:21:32;1.08;;;0.80;;
42988;SDS011;28622;43.716;20.668;2022-07-10T01:23:59;3.85;;;0.93;;
42988;SDS011;28622;43.716;20.668;2022-07-10T01:26:28;2.50;;;1.10;;
42988;SDS011;28622;43.716;20.668;2022-07-10T01:28:54;1.23;;;0.77;;
42988;SDS011;28622;43.716;20.668;2022-07-10T01:31:26;2.05;;;0.95;;
42988;SDS011;28622;43.716;20.668;2022-07-10T01:33:53;1.65;;;0.82;;
42988;SDS011;28622;43.716;20.668;2022-07-10T01:36:20;0.70;;;0.70;;
42988;SDS011;28622;43.716;20.668;2022-07-10T01:38:47;0.85;;;0.70;;
42988;SDS011;28622;43.716;20.668;2022-07-10T01:41:13;1.52;;;0.70;;
42988;SDS011;28622;43.716;20.668;2022-07-10T01:43:39;2.10;;;1.13;;
42988;SDS011;28622;43.716;20.668;2022-07-10T01:46:09;1.73;;;0.95;;
42988;SDS011;28622;43.716;20.668;2022-07-10T01:48:37;1.02;;;0.88;;
42988;SDS011;28622;43.716;20.668;2022-07-10T01:51:04;1.95;;;1.00;;
42988;SDS011;28622;43.716;20.668;2022-07-10T01:53:30;1.63;;;0.90;;
42988;SDS011;28622;43.716;20.668;2022-07-10T01:55:57;2.47;;;1.00;;
42988;SDS011;28622;43.716;20.668;2022-07-10T01:58:24;1.27;;;0.63;;
42988;SDS011;28622;43.716;20.668;2022-07-10T02:00:50;1.17;;;0.77;;
42988;SDS011;28622;43.716;20.668;2022-07-10T02:03:16;1.13;;;0.80;;
42988;SDS011;28622;43.716;20.668;2022-07-10T02:06:00;1.35;;;1.10;;
42988;SDS011;28622;43.716;20.668;2022-07-10T02:08:25;1.00;;;0.70;;
42988;SDS011;28622;43.716;20.668;2022-07-10T02:10:51;2.75;;;1.20;;
42988;SDS011;28622;43.716;20.668;2022-07-10T02:13:17;0.60;;;0.60;;
42988;SDS011;28622;43.716;20.668;2022-07-10T02:15:45;1.40;;;0.77;;
42988;SDS011;28622;43.716;20.668;2022-07-10T02:18:14;1.85;;;1.25;;
42988;SDS011;28622;43.716;20.668;2022-07-10T02:20:40;0.68;;;0.60;;
42988;SDS011;28622;43.716;20.668;2022-07-10T02:23:06;1.20;;;1.00;;
42988;SDS011;28622;43.716;20.668;2022-07-10T02:25:33;0.98;;;0.65;;
42988;SDS011;28622;43.716;20.668;2022-07-10T02:27:59;1.05;;;0.65;;
42988;SDS011;28622;43.716;20.668;2022-07-10T02:30:25;1.35;;;0.60;;
42988;SDS011;28622;43.716;20.668;2022-07-10T02:32:51;3.15;;;0.90;;
42988;SDS011;28622;43.716;20.668;2022-07-10T02:35:17;1.02;;;0.70;;
42988;SDS011;28622;43.716;20.668;2022-07-10T02:37:42;4.03;;;1.00;;
42988;SDS011;28622;43.716;20.668;2022-07-10T02:40:09;6.63;;;0.90;;
42988;SDS011;28622;43.716;20.668;2022-07-10T02:42:35;1.98;;;0.70;;
42988;SDS011;28622;43.716;20.668;2022-07-10T02:45:00;1.30;;;0.90;;
42988;SDS011;28622;43.716;20.668;2022-07-10T02:47:26;0.85;;;0.70;;
42988;SDS011;28622;43.716;20.668;2022-07-10T02:49:52;1.25;;;0.43;;
42988;SDS011;28622;43.716;20.668;2022-07-10T02:52:18;1.42;;;0.80;;
42988;SDS011;28622;43.716;20.668;2022-07-10T02:54:43;1.45;;;0.52;;
42988;SDS011;28622;43.716;20.668;2022-07-10T02:57:09;2.08;;;0.95;;
42988;SDS011;28622;43.716;20.668;2022-07-10T02:59:35;1.08;;;0.77;;
42988;SDS011;28622;43.716;20.668;2022-07-10T03:02:01;0.60;;;0.60;;
42988;SDS011;28622;43.716;20.668;2022-07-10T03:04:27;2.40;;;0.95;;
42988;SDS011;28622;43.716;20.668;2022-07-10T03:06:53;2.85;;;0.85;;
42988;SDS011;28622;43.716;20.668;2022-07-10T03:09:18;2.85;;;0.90;;
42988;SDS011;28622;43.716;20.668;2022-07-10T03:11:44;1.15;;;0.60;;
42988;SDS011;28622;43.716;20.668;2022-07-10T03:14:10;0.93;;;0.60;;
42988;SDS011;28622;43.716;20.668;2022-07-10T03:16:36;0.93;;;0.55;;
42988;SDS011;28622;43.716;20.668;2022-07-10T03:19:02;2.38;;;1.02;;
42988;SDS011;28622;43.716;20.668;2022-07-10T03:21:27;0.75;;;0.65;;
42988;SDS011;28622;43.716;20.668;2022-07-10T03:23:55;0.80;;;0.50;;
42988;SDS011;28622;43.716;20.668;2022-07-10T03:26:21;3.50;;;0.73;;
42988;SDS011;28622;43.716;20.668;2022-07-10T03:28:46;1.45;;;0.75;;
42988;SDS011;28622;43.716;20.668;2022-07-10T03:31:12;2.50;;;1.05;;
42988;SDS011;28622;43.716;20.668;2022-07-10T03:33:38;1.40;;;0.90;;
42988;SDS011;28622;43.716;20.668;2022-07-10T03:36:04;0.57;;;0.52;;
42988;SDS011;28622;43.716;20.668;2022-07-10T03:38:30;0.95;;;0.60;;
42988;SDS011;28622;43.716;20.668;2022-07-10T03:40:56;1.77;;;0.70;;
42988;SDS011;28622;43.716;20.668;2022-07-10T03:43:22;1.60;;;0.80;;
42988;SDS011;28622;43.716;20.668;2022-07-10T03:45:49;2.40;;;0.68;;
42988;SDS011;28622;43.716;20.668;2022-07-10T03:48:15;0.50;;;0.50;;
42988;SDS011;28622;43.716;20.668;2022-07-10T03:50:41;0.70;;;0.70;;
42988;SDS011;28622;43.716;20.668;2022-07-10T03:53:07;1.17;;;0.73;;
42988;SDS011;28622;43.716;20.668;2022-07-10T03:55:33;1.00;;;0.60;;
42988;SDS011;28622;43.716;20.668;2022-07-10T03:57:59;2.33;;;0.52;;
42988;SDS011;28622;43.716;20.668;2022-07-10T04:00:27;0.50;;;0.50;;
42988;SDS011;28622;43.716;20.668;2022-07-10T04:03:00;0.30;;;0.30;;
42988;SDS011;28622;43.716;20.668;2022-07-10T04:05:27;0.90;;;0.60;;
42988;SDS011;28622;43.716;20.668;2022-07-10T04:07:54;1.48;;;0.70;;
42988;SDS011;28622;43.716;20.668;2022-07-10T04:10:26;1.63;;;0.40;;
42988;SDS011;28622;43.716;20.668;2022-07-10T04:12:54;2.97;;;0.80;;
42988;SDS011;28622;43.716;20.668;2022-07-10T04:15:20;0.52;;;0.38;;
42988;SDS011;28622;43.716;20.668;2022-07-10T04:17:47;0.40;;;0.40;;
42988;SDS011;28622;43.716;20.668;2022-07-10T04:20:13;0.40;;;0.30;;
42988;SDS011;28622;43.716;20.668;2022-07-10T04:22:40;0.70;;;0.52;;
42988;SDS011;28622;43.716;20.668;2022-07-10T04:25:06;0.75;;;0.45;;
42988;SDS011;28622;43.716;20.668;2022-07-10T04:27:33;0.60;;;0.40;;
42988;SDS011;28622;43.716;20.668;2022-07-10T04:29:58;0.63;;;0.40;;
42988;SDS011;28622;43.716;20.668;2022-07-10T04:32:24;0.52;;;0.50;;
42988;SDS011;28622;43.716;20.668;2022-07-10T04:34:50;2.13;;;0.70;;
42988;SDS011;28622;43.716;20.668;2022-07-10T04:37:16;1.00;;;0.60;;
42988;SDS011;28622;43.716;20.668;2022-07-10T04:39:41;7.68;;;1.13;;
42988;SDS011;28622;43.716;20.668;2022-07-10T04:42:07;0.80;;;0.65;;
42988;SDS011;28622;43.716;20.668;2022-07-10T04:44:34;1.38;;;0.60;;
42988;SDS011;28622;43.716;20.668;2022-07-10T04:47:04;1.20;;;0.43;;
42988;SDS011;28622;43.716;20.668;2022-07-10T04:49:31;1.23;;;0.60;;
42988;SDS011;28622;43.716;20.668;2022-07-10T04:51:57;2.67;;;0.77;;
42988;SDS011;28622;43.716;20.668;2022-07-10T04:54:23;1.95;;;0.47;;
42988;SDS011;28622;43.716;20.668;2022-07-10T04:56:49;3.08;;;0.57;;
42988;SDS011;28622;43.716;20.668;2022-07-10T04:59:15;0.88;;;0.50;;
42988;SDS011;28622;43.716;20.668;2022-07-10T05:01:41;0.45;;;0.40;;
42988;SDS011;28622;43.716;20.668;2022-07-10T05:04:07;1.27;;;0.60;;
42988;SDS011;28622;43.716;20.668;2022-07-10T05:06:33;1.17;;;0.77;;
42988;SDS011;28622;43.716;20.668;2022-07-10T05:08:59;2.72;;;0.63;;
42988;SDS011;28622;43.716;20.668;2022-07-10T05:11:25;0.75;;;0.40;;
42988;SDS011;28622;43.716;20.668;2022-07-10T05:13:52;0.40;;;0.38;;
42988;SDS011;28622;43.716;20.668;2022-07-10T05:16:18;2.65;;;0.52;;
42988;SDS011;28622;43.716;20.668;2022-07-10T05:18:44;2.08;;;0.57;;
42988;SDS011;28622;43.716;20.668;2022-07-10T05:21:10;0.70;;;0.60;;
42988;SDS011;28622;43.716;20.668;2022-07-10T05:23:37;1.55;;;0.47;;
42988;SDS011;28622;43.716;20.668;2022-07-10T05:26:03;0.30;;;0.28;;
42988;SDS011;28622;43.716;20.668;2022-07-10T05:28:30;1.50;;;0.47;;
42988;SDS011;28622;43.716;20.668;2022-07-10T05:30:55;1.83;;;0.40;;
42988;SDS011;28622;43.716;20.668;2022-07-10T05:33:21;1.35;;;0.55;;
42988;SDS011;28622;43.716;20.668;2022-07-10T05:35:47;0.35;;;0.25;;
42988;SDS011;28622;43.716;20.668;2022-07-10T05:38:13;0.90;;;0.43;;
42988;SDS011;28622;43.716;20.668;2022-07-10T05:40:39;0.50;;;0.50;;
42988;SDS011;28622;43.716;20.668;2022-07-10T05:43:05;1.40;;;0.75;;
42988;SDS011;28622;43.716;20.668;2022-07-10T05:45:30;0.73;;;0.43;;
42988;SDS011;28622;43.716;20.668;2022-07-10T05:47:56;6.53;;;0.40;;
42988;SDS011;28622;43.716;20.668;2022-07-10T05:50:22;1.63;;;0.63;;
42988;SDS011;28622;43.716;20.668;2022-07-10T05:52:48;0.32;;;0.30;;
42988;SDS011;28622;43.716;20.668;2022-07-10T05:55:13;0.68;;;0.50;;
42988;SDS011;28622;43.716;20.668;2022-07-10T05:57:40;0.60;;;0.52;;
42988;SDS011;28622;43.716;20.668;2022-07-10T06:00:06;0.45;;;0.30;;
42988;SDS011;28622;43.716;20.668;2022-07-10T06:02:33;1.70;;;0.40;;
42988;SDS011;28622;43.716;20.668;2022-07-10T06:04:59;0.30;;;0.30;;
42988;SDS011;28622;43.716;20.668;2022-07-10T06:07:25;0.65;;;0.40;;
42988;SDS011;28622;43.716;20.668;2022-07-10T06:09:51;1.48;;;0.50;;
42988;SDS011;28622;43.716;20.668;2022-07-10T06:12:17;0.60;;;0.30;;
42988;SDS011;28622;43.716;20.668;2022-07-10T06:14:43;1.83;;;0.60;;
42988;SDS011;28622;43.716;20.668;2022-07-10T06:17:09;1.73;;;0.85;;
42988;SDS011;28622;43.716;20.668;2022-07-10T06:19:35;0.93;;;0.43;;
42988;SDS011;28622;43.716;20.668;2022-07-10T06:22:00;0.60;;;0.50;;
42988;SDS011;28622;43.716;20.668;2022-07-10T06:24:45;1.08;;;0.30;;
42988;SDS011;28622;43.716;20.668;2022-07-10T06:27:10;4.50;;;0.45;;
42988;SDS011;28622;43.716;20.668;2022-07-10T06:29:37;0.52;;;0.40;;
42988;SDS011;28622;43.716;20.668;2022-07-10T06:32:03;0.77;;;0.40;;
42988;SDS011;28622;43.716;20.668;2022-07-10T06:34:29;0.22;;;0.22;;
42988;SDS011;28622;43.716;20.668;2022-07-10T06:36:55;0.50;;;0.40;;
42988;SDS011;28622;43.716;20.668;2022-07-10T06:39:21;1.35;;;0.70;;
42988;SDS011;28622;43.716;20.668;2022-07-10T06:41:47;7.25;;;0.63;;
42988;SDS011;28622;43.716;20.668;2022-07-10T06:44:12;3.97;;;0.52;;
42988;SDS011;28622;43.716;20.668;2022-07-10T06:46:38;0.68;;;0.40;;
42988;SDS011;28622;43.716;20.668;2022-07-10T06:49:04;0.80;;;0.30;;
42988;SDS011;28622;43.716;20.668;2022-07-10T06:51:30;0.30;;;0.30;;
42988;SDS011;28622;43.716;20.668;2022-07-10T06:53:57;0.60;;;0.35;;
42988;SDS011;28622;43.716;20.668;2022-07-10T06:56:23;0.55;;;0.30;;
42988;SDS011;28622;43.716;20.668;2022-07-10T06:58:49;1.02;;;0.50;;
42988;SDS011;28622;43.716;20.668;2022-07-10T07:01:14;0.57;;;0.43;;
42988;SDS011;28622;43.716;20.668;2022-07-10T07:03:40;0.45;;;0.40;;
42988;SDS011;28622;43.716;20.668;2022-07-10T07:06:06;3.25;;;0.43;;
42988;SDS011;28622;43.716;20.668;2022-07-10T07:08:32;0.75;;;0.30;;
42988;SDS011;28622;43.716;20.668;2022-07-10T07:10:57;0.40;;;0.30;;
42988;SDS011;28622;43.716;20.668;2022-07-10T07:13:23;0.30;;;0.20;;
42988;SDS011;28622;43.716;20.668;2022-07-10T07:15:49;0.57;;;0.40;;
42988;SDS011;28622;43.716;20.668;2022-07-10T07:18:24;0.60;;;0.40;;
42988;SDS011;28622;43.716;20.668;2022-07-10T07:20:57;3.95;;;0.35;;
42988;SDS011;28622;43.716;20.668;2022-07-10T07:23:42;1.02;;;0.50;;
42988;SDS011;28622;43.716;20.668;2022-07-10T07:26:08;0.75;;;0.32;;
42988;SDS011;28622;43.716;20.668;2022-07-10T07:28:34;0.50;;;0.50;;
42988;SDS011;28622;43.716;20.668;2022-07-10T07:30:59;0.28;;;0.25;;
42988;SDS011;28622;43.716;20.668;2022-07-10T07:33:25;0.50;;;0.22;;
42988;SDS011;28622;43.716;20.668;2022-07-10T07:35:51;1.73;;;0.70;;
42988;SDS011;28622;43.716;20.668;2022-07-10T07:38:17;3.03;;;0.57;;
42988;SDS011;28622;43.716;20.668;2022-07-10T07:40:43;0.70;;;0.40;;
42988;SDS011;28622;43.716;20.668;2022-07-10T07:43:09;0.30;;;0.30;;
42988;SDS011;28622;43.716;20.668;2022-07-10T07:45:35;0.47;;;0.35;;
42988;SDS011;28622;43.716;20.668;2022-07-10T07:48:01;0.90;;;0.68;;
42988;SDS011;28622;43.716;20.668;2022-07-10T07:50:32;0.28;;;0.28;;
42988;SDS011;28622;43.716;20.668;2022-07-10T07:53:00;0.20;;;0.17;;
42988;SDS011;28622;43.716;20.668;2022-07-10T07:55:26;1.65;;;0.45;;
42988;SDS011;28622;43.716;20.668;2022-07-10T07:57:54;0.40;;;0.30;;
42988;SDS011;28622;43.716;20.668;2022-07-10T08:00:21;5.28;;;0.70;;
42988;SDS011;28622;43.716;20.668;2022-07-10T08:02:51;0.50;;;0.40;;
42988;SDS011;28622;43.716;20.668;2022-07-10T08:05:18;1.08;;;0.40;;
42988;SDS011;28622;43.716;20.668;2022-07-10T08:07:48;1.08;;;0.45;;
42988;SDS011;28622;43.716;20.668;2022-07-10T08:10:16;0.75;;;0.45;;
42988;SDS011;28622;43.716;20.668;2022-07-10T08:12:44;0.45;;;0.32;;
42988;SDS011;28622;43.716;20.668;2022-07-10T08:15:14;0.30;;;0.30;;
42988;SDS011;28622;43.716;20.668;2022-07-10T08:17:41;0.30;;;0.30;;
42988;SDS011;28622;43.716;20.668;2022-07-10T08:20:09;2.42;;;0.20;;
42988;SDS011;28622;43.716;20.668;2022-07-10T08:22:37;2.95;;;0.40;;
42988;SDS011;28622;43.716;20.668;2022-07-10T08:25:03;0.63;;;0.38;;
42988;SDS011;28622;43.716;20.668;2022-07-10T08:27:29;1.13;;;0.38;;
42988;SDS011;28622;43.716;20.668;2022-07-10T08:29:55;0.80;;;0.43;;
42988;SDS011;28622;43.716;20.668;2022-07-10T08:32:21;0.60;;;0.28;;
42988;SDS011;28622;43.716;20.668;2022-07-10T08:34:46;0.30;;;0.30;;
42988;SDS011;28622;43.716;20.668;2022-07-10T08:37:13;0.30;;;0.30;;
42988;SDS011;28622;43.716;20.668;2022-07-10T08:39:40;1.77;;;0.30;;
42988;SDS011;28622;43.716;20.668;2022-07-10T08:42:09;0.20;;;0.20;;
42988;SDS011;28622;43.716;20.668;2022-07-10T08:44:36;2.22;;;0.55;;
42988;SDS011;28622;43.716;20.668;2022-07-10T08:47:03;1.00;;;0.40;;
42988;SDS011;28622;43.716;20.668;2022-07-10T08:49:29;0.93;;;0.70;;
42988;SDS011;28622;43.716;20.668;2022-07-10T08:52:03;0.50;;;0.40;;
42988;SDS011;28622;43.716;20.668;2022-07-10T08:54:56;0.80;;;0.40;;
42988;SDS011;28622;43.716;20.668;2022-07-10T08:57:25;0.32;;;0.28;;
42988;SDS011;28622;43.716;20.668;2022-07-10T08:59:51;0.30;;;0.22;;
42988;SDS011;28622;43.716;20.668;2022-07-10T09:02:18;0.30;;;0.30;;
42988;SDS011;28622;43.716;20.668;2022-07-10T09:04:44;0.93;;;0.30;;
42988;SDS011;28622;43.716;20.668;2022-07-10T09:07:10;2.13;;;0.90;;
42988;SDS011;28622;43.716;20.668;2022-07-10T09:09:52;0.55;;;0.47;;
42988;SDS011;28622;43.716;20.668;2022-07-10T09:12:20;0.40;;;0.40;;
42988;SDS011;28622;43.716;20.668;2022-07-10T09:14:47;2.40;;;0.38;;
42988;SDS011;28622;43.716;20.668;2022-07-10T09:17:13;1.05;;;0.57;;
42988;SDS011;28622;43.716;20.668;2022-07-10T09:19:39;0.45;;;0.40;;
42988;SDS011;28622;43.716;20.668;2022-07-10T09:22:08;0.52;;;0.40;;
42988;SDS011;28622;43.716;20.668;2022-07-10T09:24:44;0.63;;;0.50;;
42988;SDS011;28622;43.716;20.668;2022-07-10T09:27:12;0.20;;;0.20;;
42988;SDS011;28622;43.716;20.668;2022-07-10T09:29:47;3.10;;;0.52;;
42988;SDS011;28622;43.716;20.668;2022-07-10T09:32:17;0.40;;;0.40;;
42988;SDS011;28622;43.716;20.668;2022-07-10T09:34:43;0.40;;;0.40;;
42988;SDS011;28622;43.716;20.668;2022-07-10T09:37:26;2.30;;;0.22;;
42988;SDS011;28622;43.716;20.668;2022-07-10T09:39:57;0.40;;;0.32;;
42988;SDS011;28622;43.716;20.668;2022-07-10T09:42:33;0.47;;;0.47;;
42988;SDS011;28622;43.716;20.668;2022-07-10T09:47:38;0.30;;;0.30;;
42988;SDS011;28622;43.716;20.668;2022-07-10T09:50:19;1.35;;;0.85;;
42988;SDS011;28622;43.716;20.668;2022-07-10T09:52:47;1.05;;;0.70;;
42988;SDS011;28622;43.716;20.668;2022-07-10T09:55:22;7.03;;;0.60;;
42988;SDS011;28622;43.716;20.668;2022-07-10T09:57:54;0.30;;;0.30;;
42988;SDS011;28622;43.716;20.668;2022-07-10T10:00:22;0.47;;;0.45;;
42988;SDS011;28622;43.716;20.668;2022-07-10T10:03:10;2.80;;;0.32;;
42988;SDS011;28622;43.716;20.668;2022-07-10T10:05:43;0.75;;;0.35;;
42988;SDS011;28622;43.716;20.668;2022-07-10T10:08:19;1.40;;;0.70;;
42988;SDS011;28622;43.716;20.668;2022-07-10T10:10:48;0.80;;;0.60;;
42988;SDS011;28622;43.716;20.668;2022-07-10T10:13:15;0.40;;;0.30;;
42988;SDS011;28622;43.716;20.668;2022-07-10T10:15:46;1.75;;;0.88;;
42988;SDS011;28622;43.716;20.668;2022-07-10T10:18:15;1.30;;;0.68;;
42988;SDS011;28622;43.716;20.668;2022-07-10T10:20:43;0.60;;;0.40;;
42988;SDS011;28622;43.716;20.668;2022-07-10T10:23:12;1.38;;;0.47;;
42988;SDS011;28622;43.716;20.668;2022-07-10T10:25:42;4.23;;;0.40;;
42988;SDS011;28622;43.716;20.668;2022-07-10T10:28:08;0.63;;;0.47;;
42988;SDS011;28622;43.716;20.668;2022-07-10T10:30:38;0.45;;;0.45;;
42988;SDS011;28622;43.716;20.668;2022-07-10T10:35:57;1.50;;;0.47;;
42988;SDS011;28622;43.716;20.668;2022-07-10T10:44:23;1.23;;;0.70;;
42988;SDS011;28622;43.716;20.668;2022-07-10T10:49:21;1.80;;;0.55;;
42988;SDS011;28622;43.716;20.668;2022-07-10T10:54:30;0.68;;;0.45;;
42988;SDS011;28622;43.716;20.668;2022-07-10T10:57:17;2.63;;;1.13;;
42988;SDS011;28622;43.716;20.668;2022-07-10T10:59:50;0.90;;;0.57;;
42988;SDS011;28622;43.716;20.668;2022-07-10T11:07:55;0.50;;;0.40;;
42988;SDS011;28622;43.716;20.668;2022-07-10T11:13:00;1.50;;;0.93;;
42988;SDS011;28622;43.716;20.668;2022-07-10T11:15:27;0.30;;;0.30;;
42988;SDS011;28622;43.716;20.668;2022-07-10T11:17:55;0.20;;;0.20;;
42988;SDS011;28622;43.716;20.668;2022-07-10T11:20:22;0.20;;;0.20;;
42988;SDS011;28622;43.716;20.668;2022-07-10T11:25:36;0.85;;;0.20;;
42988;SDS011;28622;43.716;20.668;2022-07-10T11:28:21;0.77;;;0.30;;
42988;SDS011;28622;43.716;20.668;2022-07-10T11:30:53;0.20;;;0.20;;
42988;SDS011;28622;43.716;20.668;2022-07-10T11:33:20;0.13;;;0.13;;
42988;SDS011;28622;43.716;20.668;2022-07-10T11:35:47;0.63;;;0.63;;
42988;SDS011;28622;43.716;20.668;2022-07-10T11:38:22;5.30;;;0.30;;
42988;SDS011;28622;43.716;20.668;2022-07-10T11:40:48;0.35;;;0.35;;
42988;SDS011;28622;43.716;20.668;2022-07-10T11:43:14;0.38;;;0.20;;
42988;SDS011;28622;43.716;20.668;2022-07-10T11:45:42;0.25;;;0.20;;
42988;SDS011;28622;43.716;20.668;2022-07-10T11:48:21;0.20;;;0.20;;
42988;SDS011;28622;43.716;20.668;2022-07-10T11:50:48;0.50;;;0.20;;
42988;SDS011;28622;43.716;20.668;2022-07-10T11:53:21;0.25;;;0.10;;
42988;SDS011;28622;43.716;20.668;2022-07-10T11:55:48;0.20;;;0.10;;
42988;SDS011;28622;43.716;20.668;2022-07-10T11:58:15;0.47;;;0.22;;
42988;SDS011;28622;43.716;20.668;2022-07-10T12:00:42;0.40;;;0.20;;
42988;SDS011;28622;43.716;20.668;2022-07-10T12:03:16;0.38;;;0.20;;
42988;SDS011;28622;43.716;20.668;2022-07-10T12:05:46;0.65;;;0.40;;
42988;SDS011;28622;43.716;20.668;2022-07-10T12:08:12;0.10;;;0.10;;
42988;SDS011;28622;43.716;20.668;2022-07-10T12:10:39;0.20;;;0.20;;
42988;SDS011;28622;43.716;20.668;2022-07-10T12:13:07;0.10;;;0.10;;
42988;SDS011;28622;43.716;20.668;2022-07-10T12:15:36;0.43;;;0.30;;
42988;SDS011;28622;43.716;20.668;2022-07-10T12:18:15;0.28;;;0.10;;
42988;SDS011;28622;43.716;20.668;2022-07-10T12:20:45;0.30;;;0.10;;
42988;SDS011;28622;43.716;20.668;2022-07-10T12:23:13;0.35;;;0.15;;
42988;SDS011;28622;43.716;20.668;2022-07-10T12:25:43;1.45;;;0.43;;
42988;SDS011;28622;43.716;20.668;2022-07-10T12:28:12;0.90;;;0.35;;
42988;SDS011;28622;43.716;20.668;2022-07-10T12:30:45;0.30;;;0.22;;
42988;SDS011;28622;43.716;20.668;2022-07-10T12:33:16;0.43;;;0.30;;
42988;SDS011;28622;43.716;20.668;2022-07-10T12:35:55;0.10;;;0.10;;
42988;SDS011;28622;43.716;20.668;2022-07-10T12:38:22;0.00;;;0.00;;
42988;SDS011;28622;43.716;20.668;2022-07-10T12:41:05;0.28;;;0.25;;
42988;SDS011;28622;43.716;20.668;2022-07-10T12:43:31;0.22;;;0.22;;
42988;SDS011;28622;43.716;20.668;2022-07-10T12:46:15;0.63;;;0.17;;
42988;SDS011;28622;43.716;20.668;2022-07-10T12:48:43;0.28;;;0.20;;
42988;SDS011;28622;43.716;20.668;2022-07-10T12:51:30;1.33;;;0.35;;
42988;SDS011;28622;43.716;20.668;2022-07-10T12:53:58;1.75;;;0.20;;
42988;SDS011;28622;43.716;20.668;2022-07-10T12:58:53;0.22;;;0.20;;
42988;SDS011;28622;43.716;20.668;2022-07-10T13:01:18;0.22;;;0.20;;
42988;SDS011;28622;43.716;20.668;2022-07-10T13:03:44;3.53;;;0.22;;
42988;SDS011;28622;43.716;20.668;2022-07-10T13:06:29;0.10;;;0.10;;
42988;SDS011;28622;43.716;20.668;2022-07-10T13:08:55;1.63;;;0.30;;
42988;SDS011;28622;43.716;20.668;2022-07-10T13:11:21;0.55;;;0.22;;
42988;SDS011;28622;43.716;20.668;2022-07-10T13:13:48;0.10;;;0.10;;
42988;SDS011;28622;43.716;20.668;2022-07-10T13:16:14;3.63;;;0.40;;
42988;SDS011;28622;43.716;20.668;2022-07-10T13:18:41;0.45;;;0.17;;
42988;SDS011;28622;43.716;20.668;2022-07-10T13:21:09;0.10;;;0.10;;
42988;SDS011;28622;43.716;20.668;2022-07-10T13:23:38;0.15;;;0.13;;
42988;SDS011;28622;43.716;20.668;2022-07-10T13:26:05;0.20;;;0.20;;
42988;SDS011;28622;43.716;20.668;2022-07-10T13:28:34;0.52;;;0.20;;
42988;SDS011;28622;43.716;20.668;2022-07-10T13:30:59;1.52;;;0.35;;
42988;SDS011;28622;43.716;20.668;2022-07-10T13:33:25;0.13;;;0.10;;
42988;SDS011;28622;43.716;20.668;2022-07-10T13:35:53;0.13;;;0.10;;
42988;SDS011;28622;43.716;20.668;2022-07-10T13:38:21;0.00;;;0.00;;
42988;SDS011;28622;43.716;20.668;2022-07-10T13:40:50;3.47;;;0.50;;
42988;SDS011;28622;43.716;20.668;2022-07-10T13:43:15;1.08;;;0.35;;
42988;SDS011;28622;43.716;20.668;2022-07-10T13:45:42;0.20;;;0.20;;
42988;SDS011;28622;43.716;20.668;2022-07-10T13:48:11;3.72;;;0.20;;
42988;SDS011;28622;43.716;20.668;2022-07-10T13:50:38;0.95;;;0.13;;
42988;SDS011;28622;43.716;20.668;2022-07-10T13:53:04;0.45;;;0.10;;
42988;SDS011;28622;43.716;20.668;2022-07-10T13:55:30;0.10;;;0.10;;
42988;SDS011;28622;43.716;20.668;2022-07-10T13:57:58;0.47;;;0.20;;
42988;SDS011;28622;43.716;20.668;2022-07-10T14:00:24;0.22;;;0.10;;
42988;SDS011;28622;43.716;20.668;2022-07-10T14:02:50;2.17;;;0.40;;
42988;SDS011;28622;43.716;20.668;2022-07-10T14:05:15;1.38;;;0.22;;
42988;SDS011;28622;43.716;20.668;2022-07-10T14:07:42;0.40;;;0.25;;
42988;SDS011;28622;43.716;20.668;2022-07-10T14:10:08;0.00;;;0.00;;
42988;SDS011;28622;43.716;20.668;2022-07-10T14:12:34;0.20;;;0.10;;
42988;SDS011;28622;43.716;20.668;2022-07-10T14:14:59;0.20;;;0.10;;
42988;SDS011;28622;43.716;20.668;2022-07-10T14:17:25;0.10;;;0.10;;
42988;SDS011;28622;43.716;20.668;2022-07-10T14:19:53;0.00;;;0.00;;
42988;SDS011;28622;43.716;20.668;2022-07-10T14:22:18;1.65;;;0.28;;
42988;SDS011;28622;43.716;20.668;2022-07-10T14:24:44;0.40;;;0.13;;
42988;SDS011;28622;43.716;20.668;2022-07-10T14:27:10;0.15;;;0.13;;
42988;SDS011;28622;43.716;20.668;2022-07-10T14:29:36;0.00;;;0.00;;
42988;SDS011;28622;43.716;20.668;2022-07-10T14:32:02;1.92;;;0.40;;
42988;SDS011;28622;43.716;20.668;2022-07-10T14:34:28;0.20;;;0.00;;
42988;SDS011;28622;43.716;20.668;2022-07-10T14:36:54;1.10;;;0.10;;
42988;SDS011;28622;43.716;20.668;2022-07-10T14:39:20;1.15;;;0.50;;
42988;SDS011;28622;43.716;20.668;2022-07-10T14:41:46;0.13;;;0.10;;
42988;SDS011;28622;43.716;20.668;2022-07-10T14:44:11;0.10;;;0.10;;
42988;SDS011;28622;43.716;20.668;2022-07-10T14:46:37;0.10;;;0.10;;
42988;SDS011;28622;43.716;20.668;2022-07-10T14:49:03;0.40;;;0.30;;
42988;SDS011;28622;43.716;20.668;2022-07-10T14:51:29;0.20;;;0.20;;
42988;SDS011;28622;43.716;20.668;2022-07-10T14:53:55;0.35;;;0.25;;
42988;SDS011;28622;43.716;20.668;2022-07-10T14:56:22;2.55;;;0.17;;
42988;SDS011;28622;43.716;20.668;2022-07-10T14:58:48;0.20;;;0.20;;
42988;SDS011;28622;43.716;20.668;2022-07-10T15:01:15;0.00;;;0.00;;
42988;SDS011;28622;43.716;20.668;2022-07-10T15:03:41;0.17;;;0.17;;
42988;SDS011;28622;43.716;20.668;2022-07-10T15:06:07;0.20;;;0.20;;